Time;durP1;ratioP1;P1;durP2;ratioP2;P2;SDS_P1;SDS_P2;PMS_P1;PMS_P2;Temp;Humidity;BMP_temperature;BMP_pressure;BME280_temperature;BME280_humidity;BME280_pressure;Samples;Min_cycle;Max_cycle;Signal;HPM_P1;HPM_P2
2021/04/05 00:01:26;;;;;;;4.80;3.20;;;;;;;4.58;100.00;101204.84;5095090;28;20167;-85
2021/04/05 00:03:51;;;;;;;5.07;3.70;;;;;;;4.46;100.00;101215.69;5113536;28;20666;-86
2021/04/05 00:06:18;;;;;;;6.17;4.07;;;;;;;4.54;100.00;101225.84;5117053;27;20376;-76
2021/04/05 00:08:45;;;;;;;4.23;2.50;;;;;;;4.50;100.00;101225.06;5115188;27;20166;-83
2021/04/05 00:11:11;;;;;;;6.60;3.97;;;;;;;4.43;100.00;101219.22;5116382;27;20433;-81
2021/04/05 00:13:42;;;;;;;3.80;2.80;;;;;;;4.50;100.00;101230.28;5114400;27;20442;-78
2021/04/05 00:16:09;;;;;;;4.70;3.53;;;;;;;4.47;100.00;101246.00;5113973;27;21046;-83
2021/04/05 00:18:35;;;;;;;5.33;4.40;;;;;;;4.49;100.00;101245.94;5119706;27;20447;-86
2021/04/05 00:21:08;;;;;;;5.50;4.70;;;;;;;4.55;100.00;101240.53;5114237;28;20766;-83
2021/04/05 00:23:35;;;;;;;4.87;3.80;;;;;;;4.56;100.00;101250.91;5115984;27;20169;-81
2021/04/05 00:26:01;;;;;;;4.97;3.83;;;;;;;4.53;100.00;101242.31;5117183;27;20401;-84
2021/04/05 00:28:27;;;;;;;7.03;5.20;;;;;;;4.45;100.00;101233.03;5116485;27;20456;-84
2021/04/05 00:30:53;;;;;;;5.40;4.30;;;;;;;4.50;100.00;101229.44;5128274;27;20859;-86
2021/04/05 00:33:20;;;;;;;7.50;4.70;;;;;;;4.42;100.00;101233.13;5135113;27;20170;-82
2021/04/05 00:35:46;;;;;;;4.60;3.80;;;;;;;4.50;100.00;101232.03;5131458;27;20460;-80
2021/04/05 00:38:11;;;;;;;5.03;4.20;;;;;;;4.52;100.00;101251.03;5126335;27;21060;-80
2021/04/05 00:40:50;;;;;;;6.77;5.20;;;;;;;4.49;100.00;101238.16;5111552;27;20395;-82
2021/04/05 00:43:16;;;;;;;4.20;3.37;;;;;;;4.51;100.00;101225.94;5092889;28;20152;-81
2021/04/05 00:45:43;;;;;;;5.30;4.47;;;;;;;4.50;100.00;101232.88;5101916;28;20409;-78
2021/04/05 00:48:10;;;;;;;6.70;5.17;;;;;;;4.52;100.00;101228.47;5133329;27;20407;-82
2021/04/05 00:50:44;;;;;;;6.40;4.27;;;;;;;4.54;100.00;101218.88;5098754;28;20416;-83
2021/04/05 00:53:12;;;;;;;5.53;3.97;;;;;;;4.57;100.00;101218.78;5113569;28;20484;-84
2021/04/05 00:55:41;;;;;;;15.87;10.67;;;;;;;4.43;100.00;101221.84;5116073;27;20505;-85
2021/04/05 00:58:07;;;;;;;6.53;5.07;;;;;;;4.49;100.00;101241.59;5117211;27;20439;-83
2021/04/05 01:00:37;;;;;;;9.47;7.73;;;;;;;4.47;100.00;101242.56;5131620;27;20429;-80
2021/04/05 01:03:04;;;;;;;9.37;7.97;;;;;;;4.48;100.00;101237.28;5134210;27;20522;-87
2021/04/05 01:05:29;;;;;;;6.00;4.73;;;;;;;4.55;100.00;101238.78;5124692;27;20389;-84
2021/04/05 01:07:56;;;;;;;9.10;7.60;;;;;;;4.48;100.00;101224.28;5114361;27;20494;-88
2021/04/05 01:10:24;;;;;;;11.37;8.50;;;;;;;4.45;100.00;101216.56;5112354;27;20237;-78
2021/04/05 01:12:50;;;;;;;11.87;9.47;;;;;;;4.57;100.00;101230.94;5125332;27;20483;-89
2021/04/05 01:15:16;;;;;;;12.10;8.73;;;;;;;4.55;100.00;101232.75;5124701;27;20428;-88
2021/04/05 01:17:42;;;;;;;12.57;9.70;;;;;;;4.52;100.00;101228.47;5125850;27;20913;-80
2021/04/05 01:20:10;;;;;;;9.93;8.50;;;;;;;4.51;100.00;101242.38;5133844;27;20405;-88
2021/04/05 01:22:36;;;;;;;9.77;7.47;;;;;;;4.49;100.00;101232.94;5132276;27;20473;-85
2021/04/05 01:25:07;;;;;;;10.87;9.20;;;;;;;4.48;100.00;101220.84;5125253;27;20933;-79
2021/04/05 01:27:33;;;;;;;11.23;9.33;;;;;;;4.49;100.00;101225.97;5112965;28;20883;-85
2021/04/05 01:29:59;;;;;;;10.10;8.13;;;;;;;4.56;100.00;101219.69;5097876;28;20796;-87
2021/04/05 01:32:24;;;;;;;12.43;9.50;;;;;;;4.55;100.00;101224.94;5114930;27;20944;-80
2021/04/05 01:34:50;;;;;;;11.57;7.83;;;;;;;4.50;100.00;101214.66;5127962;27;20226;-87
2021/04/05 01:37:15;;;;;;;12.10;8.90;;;;;;;4.50;100.00;101212.06;5112909;28;20163;-81
2021/04/05 01:39:41;;;;;;;10.27;8.30;;;;;;;4.55;100.00;101217.97;5116226;27;20242;-78
2021/04/05 01:42:06;;;;;;;10.00;7.97;;;;;;;4.56;100.00;101224.88;5120799;27;20197;-81
2021/04/05 01:44:34;;;;;;;10.93;9.00;;;;;;;4.52;100.00;101220.66;5114294;27;20167;-79
2021/04/05 01:47:00;;;;;;;9.93;8.40;;;;;;;4.55;100.00;101210.16;5111733;28;20170;-88
2021/04/05 01:49:26;;;;;;;12.23;9.60;;;;;;;4.51;100.00;101210.31;5111995;27;20449;-76
2021/04/05 01:51:51;;;;;;;12.13;9.37;;;;;;;4.58;100.00;101207.44;5113946;27;20273;-77
2021/04/05 01:54:18;;;;;;;11.13;8.67;;;;;;;4.52;100.00;101218.06;5132637;27;20519;-80
2021/04/05 01:56:44;;;;;;;9.37;7.90;;;;;;;4.53;100.00;101213.72;5131356;27;20627;-79
2021/04/05 01:59:10;;;;;;;7.00;6.13;;;;;;;4.55;100.00;101206.72;5117093;27;20440;-77
2021/04/05 02:01:36;;;;;;;10.93;7.70;;;;;;;4.50;100.00;101208.63;5120323;27;20424;-79
2021/04/05 02:04:02;;;;;;;5.57;2.97;;;;;;;4.51;100.00;101208.56;5131167;27;20419;-82
2021/04/05 02:06:30;;;;;;;8.87;7.30;;;;;;;4.49;100.00;101207.78;5116266;27;20162;-80
2021/04/05 02:08:56;;;;;;;9.63;7.70;;;;;;;4.47;100.00;101209.59;5117608;27;20507;-83
2021/04/05 02:11:28;;;;;;;9.53;7.97;;;;;;;4.52;100.00;101212.00;5115954;27;20400;-82
2021/04/05 02:13:56;;;;;;;7.90;7.00;;;;;;;4.51;100.00;101210.31;5129029;27;20204;-78
2021/04/05 02:16:24;;;;;;;9.20;6.93;;;;;;;4.58;100.00;101204.00;5112465;27;20424;-80
2021/04/05 02:18:54;;;;;;;7.80;6.13;;;;;;;4.63;100.00;101209.91;5129138;27;20504;-85
2021/04/05 02:21:21;;;;;;;7.73;6.80;;;;;;;4.57;100.00;101204.91;5126424;27;20774;-84
2021/04/05 02:23:51;;;;;;;7.80;6.33;;;;;;;4.65;100.00;101203.75;5130904;27;20419;-79
2021/04/05 02:26:19;;;;;;;7.97;6.47;;;;;;;4.66;100.00;101194.19;5118417;27;20921;-85
2021/04/05 02:28:46;;;;;;;8.60;7.50;;;;;;;4.71;100.00;101200.94;5116179;27;20921;-78
2021/04/05 02:31:19;;;;;;;9.60;6.87;;;;;;;4.70;100.00;101194.03;5118218;28;20416;-83
2021/04/05 02:33:46;;;;;;;10.77;6.90;;;;;;;4.76;100.00;101194.69;5117797;28;20424;-85
2021/04/05 02:36:15;;;;;;;8.13;6.47;;;;;;;4.81;100.00;101195.38;5114512;28;20809;-81
2021/04/05 02:38:47;;;;;;;6.23;5.63;;;;;;;4.85;100.00;101200.44;5112480;28;20559;-78
2021/04/05 02:41:15;;;;;;;10.13;6.43;;;;;;;4.81;100.00;101188.44;5110999;28;20409;-82
2021/04/05 02:43:41;;;;;;;8.10;6.03;;;;;;;4.86;100.00;101186.53;5126745;28;20565;-82
2021/04/05 02:46:14;;;;;;;8.93;8.00;;;;;;;4.83;100.00;101188.38;5120283;28;20413;-82
2021/04/05 02:48:44;;;;;;;8.87;7.37;;;;;;;4.87;100.00;101203.00;5109962;28;20443;-83
2021/04/05 02:51:11;;;;;;;10.83;7.73;;;;;;;4.94;100.00;101204.47;5111567;28;20407;-85
2021/04/05 02:53:42;;;;;;;9.90;7.87;;;;;;;4.85;100.00;101200.44;5120020;28;20423;-79
2021/04/05 02:56:09;;;;;;;8.50;6.67;;;;;;;4.96;100.00;101202.66;5127178;28;20424;-82
2021/04/05 02:58:40;;;;;;;11.73;7.90;;;;;;;4.96;100.00;101203.50;5130036;28;20482;-79
2021/04/05 03:01:07;;;;;;;8.00;6.97;;;;;;;4.92;100.00;101198.47;5124514;28;20439;-78
2021/04/05 03:03:33;;;;;;;8.57;6.40;;;;;;;4.95;100.00;101212.22;5132220;28;20384;-83
2021/04/05 03:05:59;;;;;;;9.00;6.40;;;;;;;4.98;100.00;101204.28;5120259;28;20428;-82
2021/04/05 03:08:27;;;;;;;9.30;6.80;;;;;;;4.96;100.00;101205.25;5116208;28;20453;-82
2021/04/05 03:10:56;;;;;;;9.23;6.50;;;;;;;4.98;100.00;101219.06;5113046;28;20198;-81
2021/04/05 03:13:23;;;;;;;9.40;8.03;;;;;;;4.99;100.00;101228.59;5111873;27;20956;-79
2021/04/05 03:15:49;;;;;;;10.33;6.87;;;;;;;5.02;100.00;101225.88;5123697;27;20428;-83
2021/04/05 03:18:17;;;;;;;10.07;7.67;;;;;;;5.11;100.00;101235.94;5105970;28;20440;-79
2021/04/05 03:20:43;;;;;;;14.77;10.90;;;;;;;5.11;100.00;101232.50;5120552;27;20177;-80
2021/04/05 03:23:09;;;;;;;14.10;10.40;;;;;;;5.04;100.00;101229.25;5133169;27;20427;-80
2021/04/05 03:25:34;;;;;;;7.00;6.17;;;;;;;5.09;100.00;101232.56;5125680;27;20421;-82
2021/04/05 03:28:00;;;;;;;10.47;6.67;;;;;;;5.08;100.00;101238.69;5118090;27;20989;-82
2021/04/05 03:30:37;;;;;;;12.87;11.30;;;;;;;5.11;100.00;101232.50;5114827;28;20155;-83
2021/04/05 03:33:17;;;;;;;12.20;10.00;;;;;;;5.05;100.00;101228.34;5128789;27;20265;-80
2021/04/05 03:35:47;;;;;;;13.77;9.80;;;;;;;5.02;100.00;101238.88;5127847;27;20455;-86
2021/04/05 03:38:14;;;;;;;14.03;10.07;;;;;;;5.03;100.00;101237.97;5117146;27;20486;-83
2021/04/05 03:40:42;;;;;;;10.70;8.03;;;;;;;5.03;100.00;101240.59;5117587;27;20959;-80
2021/04/05 03:43:18;;;;;;;16.50;11.70;;;;;;;4.98;100.00;101245.94;5132345;27;20432;-79
2021/04/05 03:45:48;;;;;;;16.90;10.30;;;;;;;5.01;100.00;101252.81;5109660;28;20413;-82
2021/04/05 03:48:35;;;;;;;13.93;11.10;;;;;;;5.03;100.00;101250.16;5116355;27;20511;-81
2021/04/05 03:51:25;;;;;;;16.73;10.70;;;;;;;4.99;100.00;101250.28;5114633;28;20408;-80
2021/04/05 03:54:11;;;;;;;19.83;13.37;;;;;;;5.03;100.00;101250.16;5129576;27;20933;-85
2021/04/05 03:56:43;;;;;;;21.53;17.67;;;;;;;5.03;100.00;101250.16;5118776;27;20400;-83
2021/04/05 03:59:18;;;;;;;16.77;13.67;;;;;;;4.99;100.00;101252.03;5110696;28;20455;-80
2021/04/05 04:01:49;;;;;;;21.30;13.30;;;;;;;5.01;100.00;101247.59;5112389;28;20412;-78
2021/04/05 04:04:24;;;;;;;21.53;14.13;;;;;;;5.05;100.00;101258.75;5121775;27;20412;-85
2021/04/05 04:09:32;;;;;;;11.30;8.83;;;;;;;5.09;100.00;101252.53;5121713;27;20933;-77
2021/04/05 04:11:58;;;;;;;14.23;11.70;;;;;;;5.11;100.00;101251.56;5117710;27;20454;-78
2021/04/05 04:14:25;;;;;;;13.67;10.77;;;;;;;5.10;100.00;101247.28;5117759;27;20462;-83
2021/04/05 04:16:52;;;;;;;12.80;8.97;;;;;;;5.11;100.00;101248.13;5119013;27;20427;-77
2021/04/05 04:19:18;;;;;;;20.73;13.60;;;;;;;5.10;100.00;101252.47;5126124;27;20468;-80
2021/04/05 04:21:46;;;;;;;17.10;11.40;;;;;;;5.13;100.00;101247.16;5131397;27;20838;-79
2021/04/05 04:24:12;;;;;;;20.27;14.97;;;;;;;5.12;100.00;101250.66;5109795;28;20466;-82
2021/04/05 04:26:38;;;;;;;20.50;14.50;;;;;;;5.15;100.00;101249.72;5122741;27;20412;-81
2021/04/05 04:29:04;;;;;;;19.63;14.20;;;;;;;5.19;100.00;101257.34;5121141;27;20401;-81
2021/04/05 04:31:30;;;;;;;22.60;16.80;;;;;;;5.21;100.00;101252.97;5120673;27;20295;-80
2021/04/05 04:33:56;;;;;;;20.20;15.50;;;;;;;5.13;100.00;101252.34;5114591;27;20907;-81
2021/04/05 04:36:26;;;;;;;19.73;15.43;;;;;;;5.22;100.00;101253.81;5097524;27;20441;-81
2021/04/05 04:38:55;;;;;;;15.50;9.90;;;;;;;5.27;100.00;101257.06;5115421;27;20189;-79
2021/04/05 04:41:25;;;;;;;18.70;15.20;;;;;;;5.26;100.00;101258.84;5132117;27;20463;-78
2021/04/05 04:43:58;;;;;;;17.37;14.03;;;;;;;5.28;100.00;101261.38;5124781;27;20424;-79
2021/04/05 04:46:24;;;;;;;15.70;11.73;;;;;;;5.25;100.00;101259.75;5113434;27;20401;-78
2021/04/05 04:49:01;;;;;;;18.60;15.20;;;;;;;5.27;100.00;101262.28;5123810;27;20466;-84
2021/04/05 04:51:28;;;;;;;15.40;7.93;;;;;;;5.27;100.00;101270.09;5117243;27;20158;-80
2021/04/05 04:53:55;;;;;;;17.07;11.60;;;;;;;5.31;100.00;101263.03;5133992;27;20471;-81
2021/04/05 04:56:21;;;;;;;17.77;14.70;;;;;;;5.33;100.00;101259.47;5128154;27;20512;-82
2021/04/05 04:58:47;;;;;;;18.67;15.03;;;;;;;5.42;100.00;101266.09;5110858;27;20448;-78
2021/04/05 05:01:13;;;;;;;31.27;26.30;;;;;;;5.51;100.00;101263.97;5120192;27;20514;-83
2021/04/05 05:03:53;;;;;;;36.57;26.93;;;;;;;5.58;100.00;101256.78;5133443;27;20557;-77
2021/04/05 05:06:22;;;;;;;26.37;22.20;;;;;;;5.58;100.00;101265.44;5131161;27;20492;-78
2021/04/05 05:08:48;;;;;;;13.87;9.97;;;;;;;5.68;100.00;101276.41;5124813;27;20788;-83
2021/04/05 05:11:15;;;;;;;21.10;16.67;;;;;;;5.78;100.00;101276.91;5119503;27;20450;-79
2021/04/05 05:13:41;;;;;;;16.43;11.93;;;;;;;5.88;100.00;101283.44;5130099;27;20174;-81
2021/04/05 05:16:07;;;;;;;20.60;14.77;;;;;;;5.89;100.00;101279.06;5120466;27;20905;-86
2021/04/05 05:18:35;;;;;;;28.60;11.47;;;;;;;6.05;100.00;101290.66;5112243;28;20183;-82
2021/04/05 05:21:06;;;;;;;16.20;9.50;;;;;;;6.02;100.00;101281.19;5119329;27;20432;-80
2021/04/05 05:23:34;;;;;;;14.57;12.23;;;;;;;6.14;100.00;101279.88;5120969;27;20427;-78
2021/04/05 05:26:01;;;;;;;16.27;13.70;;;;;;;6.22;100.00;101283.03;5098998;27;20454;-80
2021/04/05 05:28:28;;;;;;;15.00;11.30;;;;;;;6.31;100.00;101282.66;5130690;27;20480;-80
2021/04/05 05:30:53;;;;;;;12.70;10.60;;;;;;;6.39;100.00;101279.72;5129630;27;20431;-80
2021/04/05 05:33:20;;;;;;;15.57;12.60;;;;;;;6.51;100.00;101278.38;5130456;27;20452;-87
2021/04/05 05:35:46;;;;;;;16.87;13.27;;;;;;;6.53;100.00;101282.63;5113209;27;20213;-81
2021/04/05 05:38:13;;;;;;;16.90;11.90;;;;;;;6.55;100.00;101278.19;5130414;27;20812;-80
2021/04/05 05:40:40;;;;;;;12.97;10.30;;;;;;;6.59;100.00;101281.53;5112978;27;20433;-80
2021/04/05 05:43:14;;;;;;;15.13;10.87;;;;;;;6.57;100.00;101270.28;5132359;27;20391;-78
2021/04/05 05:45:55;;;;;;;16.43;11.53;;;;;;;6.54;100.00;101276.47;5111381;27;20431;-80
2021/04/05 05:48:23;;;;;;;17.37;12.30;;;;;;;6.55;100.00;101278.19;5120583;27;20458;-79
2021/04/05 05:51:04;;;;;;;12.00;9.97;;;;;;;6.74;100.00;101277.44;5091934;28;20957;-80
2021/04/05 05:54:02;;;;;;;13.93;11.90;;;;;;;6.75;100.00;101279.97;5094860;27;20873;-80
2021/04/05 05:57:25;;;;;;;16.07;11.70;;;;;;;7.05;100.00;101275.19;5111753;28;20405;-80
2021/04/05 06:00:11;;;;;;;13.67;10.83;;;;;;;7.09;100.00;101271.50;5003054;28;20558;-80
2021/04/05 06:02:42;;;;;;;15.27;10.70;;;;;;;7.08;100.00;101275.06;5009480;28;20410;-82
2021/04/05 06:05:31;;;;;;;15.40;11.80;;;;;;;7.05;100.00;101276.97;5071613;27;20428;-82
2021/04/05 06:08:19;;;;;;;12.83;9.70;;;;;;;7.13;100.00;101278.31;5111582;28;20516;-80
2021/04/05 06:10:53;;;;;;;8.63;6.33;;;;;;;7.17;100.00;101286.84;5123902;27;20527;-78
2021/04/05 06:13:34;;;;;;;15.63;12.40;;;;;;;7.23;100.00;101289.22;5131477;27;20390;-82
2021/04/05 06:16:05;;;;;;;17.50;12.60;;;;;;;7.37;100.00;101292.06;5109360;28;20416;-79
2021/04/05 06:18:40;;;;;;;24.77;14.40;;;;;;;7.47;100.00;101295.94;5111555;28;20460;-81
2021/04/05 06:21:15;;;;;;;13.50;9.47;;;;;;;7.46;100.00;101286.41;5105644;27;20431;-76
2021/04/05 06:23:49;;;;;;;19.83;15.00;;;;;;;7.40;100.00;101289.31;5130930;27;20415;-79
2021/04/05 06:26:25;;;;;;;16.10;12.37;;;;;;;7.47;100.00;101293.34;5122404;27;20427;-78
2021/04/05 06:28:56;;;;;;;17.83;12.77;;;;;;;7.42;100.00;101303.19;5118448;27;20420;-82
2021/04/05 06:31:33;;;;;;;25.10;15.30;;;;;;;7.33;100.00;101305.31;5110663;28;20416;-76
2021/04/05 06:34:10;;;;;;;20.30;14.60;;;;;;;7.43;100.00;101304.88;5111168;28;20816;-79
2021/04/05 06:36:48;;;;;;;12.73;9.53;;;;;;;7.43;100.00;101309.25;5101925;28;20467;-77
2021/04/05 06:39:24;;;;;;;17.50;12.60;;;;;;;7.65;100.00;101307.38;5089534;28;21017;-80
2021/04/05 06:41:55;;;;;;;18.90;14.17;;;;;;;7.70;100.00;101322.81;5091093;28;20460;-78
2021/04/05 06:44:45;;;;;;;22.13;11.80;;;;;;;7.86;100.00;101321.25;5072275;28;20874;-79
2021/04/05 06:47:44;;;;;;;17.63;11.03;;;;;;;7.88;100.00;101316.78;5095457;28;20428;-78
2021/04/05 06:50:58;;;;;;;16.60;13.33;;;;;;;8.13;100.00;101328.72;5080421;28;20398;-80
2021/04/05 06:53:53;;;;;;;21.97;15.60;;;;;;;8.28;100.00;101327.97;5031810;28;20976;-80
2021/04/05 06:56:44;;;;;;;18.50;13.10;;;;;;;8.58;100.00;101331.78;5094042;28;20459;-80
2021/04/05 06:59:15;;;;;;;14.80;10.63;;;;;;;8.66;100.00;101336.63;5094463;28;20441;-81
2021/04/05 07:01:54;;;;;;;16.40;10.70;;;;;;;8.64;100.00;101338.47;5093986;28;20432;-81
2021/04/05 07:04:46;;;;;;;16.53;12.30;;;;;;;8.96;100.00;101334.25;5075825;28;20433;-81
2021/04/05 07:07:51;;;;;;;15.80;12.43;;;;;;;8.92;100.00;101345.84;5093638;28;20405;-83
2021/04/05 07:10:25;;;;;;;18.77;12.73;;;;;;;9.24;100.00;101340.72;5093636;28;20435;-80
2021/04/05 07:13:05;;;;;;;20.00;13.47;;;;;;;9.50;100.00;101334.97;5094580;28;20438;-77
2021/04/05 07:15:43;;;;;;;17.70;13.10;;;;;;;9.43;100.00;101337.06;5093167;28;20761;-80
2021/04/05 07:18:47;;;;;;;35.30;14.43;;;;;;;9.56;100.00;101339.88;5094884;28;20453;-80
2021/04/05 07:21:39;;;;;;;20.93;11.13;;;;;;;9.57;100.00;101340.72;5093245;28;20432;-81
2021/04/05 07:24:57;;;;;;;17.47;12.87;;;;;;;9.53;100.00;101341.84;5094466;28;20844;-80
2021/04/05 07:27:59;;;;;;;10.27;8.13;;;;;;;9.30;100.00;101348.28;5045602;28;20480;-80
2021/04/05 07:30:36;;;;;;;21.40;12.83;;;;;;;9.57;100.00;101352.06;5073572;28;20407;-78
2021/04/05 07:33:06;;;;;;;30.00;15.20;;;;;;;9.87;100.00;101354.00;5092660;28;20454;-81
2021/04/05 07:35:55;;;;;;;25.80;12.43;;;;;;;9.61;100.00;101355.41;5107952;28;21026;-78
2021/04/05 07:38:35;;;;;;;17.50;11.90;;;;;;;9.38;100.00;101357.44;5116557;27;20456;-79
2021/04/05 07:41:26;;;;;;;14.43;9.13;;;;;;;9.59;100.00;101355.44;5135663;27;20403;-78
2021/04/05 07:44:11;;;;;;;11.70;7.47;;;;;;;9.56;100.00;101358.25;5132822;27;20583;-78
2021/04/05 07:46:42;;;;;;;21.63;13.57;;;;;;;9.44;100.00;101359.72;5134928;27;20396;-77
2021/04/05 07:49:51;;;;;;;16.30;11.03;;;;;;;9.67;100.00;101355.03;5133468;27;20420;-78
2021/04/05 07:52:19;;;;;;;19.73;12.47;;;;;;;9.97;100.00;101347.31;5131620;27;20400;-79
2021/04/05 07:54:45;;;;;;;20.13;13.17;;;;;;;10.00;100.00;101348.00;5132555;27;20739;-78
2021/04/05 07:57:39;;;;;;;19.17;11.37;;;;;;;10.25;100.00;101352.78;5131511;27;20974;-77
2021/04/05 08:00:51;;;;;;;13.73;9.37;;;;;;;10.08;100.00;101357.22;5113550;28;20440;-76
2021/04/05 08:03:43;;;;;;;29.03;13.67;;;;;;;10.01;100.00;101362.81;5122530;27;20986;-81
2021/04/05 08:06:14;;;;;;;29.87;12.60;;;;;;;10.25;100.00;101360.66;5113121;27;20998;-81
2021/04/05 08:08:48;;;;;;;24.57;12.23;;;;;;;10.48;100.00;101353.25;5126213;27;20455;-80
2021/04/05 08:11:29;;;;;;;18.00;11.13;;;;;;;10.69;100.00;101348.56;5117069;27;20553;-83
2021/04/05 08:14:25;;;;;;;17.07;11.83;;;;;;;10.62;100.00;101349.84;5108148;27;20431;-79
2021/04/05 08:16:57;;;;;;;19.57;12.80;;;;;;;10.81;100.00;101359.25;5123635;27;20405;-79
2021/04/05 08:19:38;;;;;;;17.10;11.57;;;;;;;11.00;100.00;101355.53;5115109;27;20463;-82
2021/04/05 08:22:23;;;;;;;20.10;12.93;;;;;;;11.26;100.00;101352.22;5131098;27;20831;-78
2021/04/05 08:25:04;;;;;;;21.13;14.17;;;;;;;11.28;100.00;101358.22;5106483;27;20423;-80
2021/04/05 08:27:51;;;;;;;16.87;9.37;;;;;;;11.11;100.00;101364.50;5113032;28;20408;-75
2021/04/05 08:30:55;;;;;;;58.60;15.97;;;;;;;11.22;100.00;101365.63;5119833;27;20776;-78
2021/04/05 08:33:27;;;;;;;19.50;11.57;;;;;;;11.17;100.00;101365.88;5080195;27;20436;-80
2021/04/05 08:36:06;;;;;;;19.50;10.83;;;;;;;11.08;100.00;101362.03;5093223;28;20492;-75
2021/04/05 08:38:51;;;;;;;23.67;13.50;;;;;;;11.27;100.00;101369.69;5087584;28;21014;-77
2021/04/05 08:41:46;;;;;;;20.60;11.77;;;;;;;11.07;100.00;101367.38;5107112;27;20457;-78
2021/04/05 08:44:28;;;;;;;17.50;12.07;;;;;;;10.98;100.00;101352.16;5133302;27;20396;-81
2021/04/05 08:46:59;;;;;;;23.67;15.57;;;;;;;11.29;100.00;101351.19;5111507;27;20418;-76
2021/04/05 08:49:27;;;;;;;13.90;8.60;;;;;;;11.19;100.00;101350.88;5121234;27;20403;-72
2021/04/05 08:51:57;;;;;;;12.17;8.57;;;;;;;11.14;100.00;101347.66;5109690;28;20405;-72
2021/04/05 08:54:26;;;;;;;15.40;11.10;;;;;;;11.35;100.00;101356.91;5116678;27;20454;-73
2021/04/05 08:57:09;;;;;;;15.80;10.73;;;;;;;11.45;100.00;101345.84;5112608;28;20407;-72
2021/04/05 09:00:00;;;;;;;26.13;12.80;;;;;;;11.34;100.00;101351.75;5112609;28;20869;-76
2021/04/05 09:02:30;;;;;;;15.47;10.97;;;;;;;11.24;100.00;101338.28;5111110;28;20473;-76
2021/04/05 09:04:56;;;;;;;19.43;9.70;;;;;;;11.55;100.00;101346.94;5092977;28;20421;-75
2021/04/05 09:07:34;;;;;;;17.97;12.20;;;;;;;12.19;100.00;101343.81;5105923;28;21469;-74
2021/04/05 09:10:05;;;;;;;18.87;11.97;;;;;;;12.66;100.00;101339.91;5111250;28;20916;-74
2021/04/05 09:12:34;;;;;;;13.53;8.30;;;;;;;12.75;100.00;101334.00;5109958;27;20420;-75
2021/04/05 09:15:14;;;;;;;10.83;8.43;;;;;;;12.47;100.00;101336.78;5110946;28;20474;-76
2021/04/05 09:17:53;;;;;;;22.80;10.00;;;;;;;12.63;100.00;101334.00;5111402;28;20405;-73
2021/04/05 09:20:54;;;;;;;19.83;13.37;;;;;;;12.59;100.00;101329.84;5111100;28;20413;-76
2021/04/05 09:23:22;;;;;;;16.27;9.90;;;;;;;11.97;100.00;101342.66;5097494;28;20421;-77
2021/04/05 09:26:00;;;;;;;13.03;8.50;;;;;;;10.68;100.00;101345.09;5110776;27;20949;-76
2021/04/05 09:29:05;;;;;;;19.53;14.13;;;;;;;10.10;100.00;101358.84;5121129;27;20413;-73
2021/04/05 09:32:00;;;;;;;15.40;11.37;;;;;;;10.12;100.00;101369.25;5056593;28;20416;-75
2021/04/05 09:34:50;;;;;;;18.60;14.07;;;;;;;10.14;100.00;101370.03;5111775;28;20480;-75
2021/04/05 09:37:49;;;;;;;22.50;14.47;;;;;;;10.44;100.00;101367.53;5077711;28;20406;-75
2021/04/05 09:40:17;;;;;;;14.40;12.00;;;;;;;10.71;100.00;101365.09;5082316;28;20477;-75
2021/04/05 09:43:00;;;;;;;23.17;12.50;;;;;;;11.23;100.00;101362.91;5072944;28;20927;-77
2021/04/05 09:45:35;;;;;;;21.40;13.07;;;;;;;11.83;100.00;101351.41;5090555;28;20419;-78
2021/04/05 09:48:47;;;;;;;15.83;12.10;;;;;;;12.33;100.00;101345.59;5091263;28;20477;-77
2021/04/05 09:51:49;;;;;;;20.93;13.03;;;;;;;12.61;100.00;101344.63;5028637;28;20829;-77
2021/04/05 09:54:14;;;;;;;14.27;9.83;;;;;;;12.75;100.00;101330.53;5090900;28;20389;-76
2021/04/05 09:56:48;;;;;;;13.13;9.23;;;;;;;12.74;100.00;101334.13;5091391;28;20397;-78
2021/04/05 09:59:18;;;;;;;23.70;11.97;;;;;;;12.49;100.00;101337.53;5090928;28;20613;-74
2021/04/05 10:01:50;;;;;;;19.80;12.20;;;;;;;12.83;100.00;101336.13;5090522;28;20455;-75
2021/04/05 10:04:21;;;;;;;14.13;11.50;;;;;;;13.80;100.00;101341.78;5090732;28;20789;-72
2021/04/05 10:06:47;;;;;;;18.43;10.43;;;;;;;14.42;100.00;101323.19;5091038;28;20393;-78
2021/04/05 10:09:13;;;;;;;24.97;11.90;;;;;;;14.22;100.00;101325.63;5090670;28;20414;-78
2021/04/05 10:11:41;;;;;;;14.43;10.20;;;;;;;13.76;100.00;101334.22;5089690;28;20402;-75
2021/04/05 10:14:09;;;;;;;22.63;8.60;;;;;;;13.45;100.00;101324.91;5090435;28;20163;-75
2021/04/05 10:16:37;;;;;;;10.77;7.80;;;;;;;12.82;100.00;101341.53;5090836;28;20400;-77
2021/04/05 10:19:08;;;;;;;13.07;7.80;;;;;;;12.13;100.00;101356.53;5090151;28;20434;-76
2021/04/05 10:21:42;;;;;;;11.30;7.63;;;;;;;11.83;100.00;101347.00;5090165;28;20498;-75
2021/04/05 10:24:09;;;;;;;12.40;9.67;;;;;;;11.80;100.00;101344.56;5089801;28;20409;-80
2021/04/05 10:26:38;;;;;;;13.53;7.63;;;;;;;11.92;100.00;101350.81;5092549;28;20751;-73
2021/04/05 10:29:08;;;;;;;15.20;8.87;;;;;;;11.86;100.00;101344.19;5099701;28;20394;-79
2021/04/05 10:31:35;;;;;;;10.07;8.20;;;;;;;11.89;100.00;101356.31;5092024;28;20425;-79
2021/04/05 10:34:07;;;;;;;22.10;9.23;;;;;;;11.68;100.00;101340.00;5091578;28;20410;-79
2021/04/05 10:36:46;;;;;;;11.30;8.20;;;;;;;11.79;100.00;101342.84;5110722;28;20458;-79
2021/04/05 10:39:13;;;;;;;14.77;9.40;;;;;;;12.58;100.00;101338.72;5090755;28;20539;-78
2021/04/05 10:42:03;;;;;;;11.93;9.50;;;;;;;14.13;100.00;101312.13;5100122;28;20395;-79
2021/04/05 10:44:33;;;;;;;12.90;10.27;;;;;;;16.32;100.00;101306.72;5100420;28;20416;-79
2021/04/05 10:47:07;;;;;;;13.03;8.00;;;;;;;17.58;100.00;101299.59;5111609;28;20786;-77
2021/04/05 10:49:33;;;;;;;11.07;8.60;;;;;;;19.16;88.82;101294.16;5110579;28;20412;-77
2021/04/05 10:52:28;;;;;;;8.87;7.00;;;;;;;19.32;85.10;101304.19;5106289;28;20401;-79
2021/04/05 10:54:56;;;;;;;13.63;8.23;;;;;;;19.08;80.88;101302.84;5110873;28;20412;-75
2021/04/05 10:57:35;;;;;;;9.87;6.77;;;;;;;16.95;92.42;101305.97;5111278;28;20756;-81
2021/04/05 11:00:09;;;;;;;13.10;7.50;;;;;;;14.90;100.00;101323.19;5111817;28;20496;-73
2021/04/05 11:02:37;;;;;;;12.70;10.37;;;;;;;13.77;100.00;101320.91;5127878;28;20468;-82
2021/04/05 11:05:09;;;;;;;13.67;9.17;;;;;;;13.49;100.00;101327.25;5112523;28;20393;-83
2021/04/05 11:07:37;;;;;;;10.93;9.43;;;;;;;13.01;100.00;101332.28;5112133;28;20441;-80
2021/04/05 11:10:09;;;;;;;17.67;11.00;;;;;;;11.85;100.00;101346.88;5113575;28;20424;-81
2021/04/05 11:12:38;;;;;;;17.53;12.53;;;;;;;10.16;100.00;101358.50;5112961;28;20830;-87
2021/04/05 11:15:09;;;;;;;22.37;13.90;;;;;;;9.84;100.00;101364.66;5111997;28;20397;-87
2021/04/05 11:17:40;;;;;;;23.07;15.37;;;;;;;9.74;100.00;101362.50;5094924;28;20397;-81
2021/04/05 11:20:08;;;;;;;18.90;16.00;;;;;;;9.83;100.00;101357.72;5094118;28;20445;-84
2021/04/05 11:22:36;;;;;;;22.10;16.60;;;;;;;9.93;100.00;101351.03;5112002;28;20491;-76
2021/04/05 11:25:10;;;;;;;21.37;16.53;;;;;;;10.36;100.00;101346.09;5111848;28;20944;-83
2021/04/05 11:27:40;;;;;;;18.87;15.20;;;;;;;10.43;100.00;101343.03;5092781;28;20990;-79
2021/04/05 11:30:07;;;;;;;16.50;13.50;;;;;;;11.10;100.00;101328.59;5092054;28;20416;-82
2021/04/05 11:32:36;;;;;;;16.90;12.77;;;;;;;12.20;100.00;101326.22;5115054;28;20423;-80
2021/04/05 11:35:05;;;;;;;15.80;10.80;;;;;;;14.49;100.00;101304.28;5097273;28;20460;-82
2021/04/05 11:37:36;;;;;;;11.87;7.47;;;;;;;16.04;100.00;101286.06;5118484;28;20441;-79
2021/04/05 11:40:26;;;;;;;19.27;15.47;;;;;;;16.32;100.00;101269.59;5113950;28;20473;-83
2021/04/05 11:42:53;;;;;;;9.10;7.90;;;;;;;15.92;100.00;101274.63;5112333;28;20396;-78
2021/04/05 11:45:28;;;;;;;9.60;7.70;;;;;;;14.63;100.00;101280.28;5114075;28;20400;-85